Galveston, Texas
Current Conditions -  °F | °C
As of 2:52 AM on Monday 24 Nov 2014 (Local Time) from KGLS Reporting Station
Clear Clear  
Wind Chill: 63°   Ceiling: Unl
Heat Index: 63°   Visibility: 10mi
Dew Point: 54°   Wind: 14mph
Humidity: 72%   Direction: 340°NNW
Pressure: 29.81"   Gusts: NA
Location:  29.3°N, 94.81°W
Report Text: KGLS 240852Z AUTO 34012KT 10SM CLR 17/12 A2981 RMK AO2 SLP096 T01720122 53031
Loading
Personal Weather Stations






























Interactive Weather Map New forecast layout! Learn more

10-Day Weather Forecast

Advertisements
Track Severe Weather on mobile